This is the latest recevied weather packets stored in our database for station/object LKCS. If no packets are shown the sender has not sent any weather packets the latest 1 day(s).
| Time | Temp. | Humidity | Pressure | Rain* | Wind** | Luminosity | Snow |
|---|---|---|---|---|---|---|---|
| 1778007786 | 17.22° C | 63% | 1003 hPa | - | 0.89 m/s, 0° | - | - |
| 1778005958 | 18.89° C | 59% | 1003 hPa | - | 0.45 m/s, 0° | - | - |
| 1778004187 | 20° C | 56% | 1003 hPa | - | 0.45 m/s, 0° | - | - |
| 1778002384 | 20° C | 60% | 1003 hPa | - | 0.89 m/s, 0° | - | - |
| 1778000586 | 21.11° C | 49% | 1004 hPa | - | 0.89 m/s, 0° | - | - |
| 1777998785 | 21.11° C | 49% | 1004 hPa | - | 0.89 m/s, 0° | - | - |
| 1777996962 | 21.11° C | 49% | 1004 hPa | - | 1.34 m/s, 40° | - | - |
| 1777995165 | 21.11° C | 52% | 1004 hPa | - | 2.68 m/s, 60° | - | - |
| 1777993367 | 21.11° C | 49% | 1005 hPa | - | 3.13 m/s, 50° | - | - |
| 1777991565 | 21.11° C | 52% | 1005 hPa | - | 3.13 m/s, 40° | - | - |
| 1777989801 | 21.11° C | 56% | 1005 hPa | - | 2.24 m/s, 50° | - | - |
| 1777987965 | 21.11° C | 52% | 1005 hPa | - | 2.24 m/s, 30° | - | - |
| 1777986185 | 23.89° C | 33% | 1005 hPa | - | 3.13 m/s, 310° | - | - |
| 1777984359 | 26.11° C | 29% | 1005 hPa | - | 2.68 m/s, 0° | - | - |
| 1777982560 | 25° C | 31% | 1005 hPa | - | 3.58 m/s, 300° | - | - |
| 1777980757 | 26.11° C | 31% | 1006 hPa | - | 3.13 m/s, 0° | - | - |
| 1777978978 | 25° C | 33% | 1006 hPa | - | 3.13 m/s, 20° | - | - |
| 1777977190 | 25° C | 33% | 1006 hPa | - | 2.68 m/s, 0° | - | - |
| 1777975393 | 23.89° C | 36% | 1007 hPa | - | 2.24 m/s, 0° | - | - |
| 1777973585 | 22.78° C | 40% | 1007 hPa | - | 1.34 m/s, 0° | - | - |
| 1777971793 | 22.78° C | 40% | 1007 hPa | - | 1.34 m/s, 140° | - | - |
| 1777969985 | 21.11° C | 49% | 1007 hPa | - | 1.34 m/s, 70° | - | - |
| 1777968173 | 21.11° C | 49% | 1008 hPa | - | 0.89 m/s, 0° | - | - |
| 1777966358 | 18.89° C | 52% | 1008 hPa | - | 1.34 m/s, 110° | - | - |
| 1777964602 | 17.78° C | 55% | 1008 hPa | - | 1.34 m/s, 100° | - | - |
* Rain since midnight (hover to see other rain measurements)
** Current wind speed in m/s (hover to see current wind gust speed)